New Richmond, IN (47967)

4:24 PM EDT on September 22, 2014 (GMT -0400)
Linden | Change Station
CLOSE
Current Station
Personal Weather Station
Location: Linden, IN
Elevation: 745 ft
Nearby Weather Stations

Elev 745 ft 40.28 °N, 87.02 °W | Updated 13 seconds ago

Clear
Clear
70.2 °F
Feels Like 77 °F
N
0.0
Wind Variable Wind from North
Gusts 0.0 mph

Today
High -- | Low -- °F
--% Chance of Precip.
Yesterday
High -- | Low -- °F
Precip. -- in
7:35 AM 7:45 PM
Waning Crescent, 2% visible
Pressure 30.25 in
Visibility 10.0 miles
Clouds Clear
Heat Index 77 °F
Dew Point 47 °F
Humidity 44%
Rainfall 0.00 in
Snow Depth Not available.
UV 5 out of 12
Pollen 5.20 out of 12
Air Quality Not available.
Flu Activity Not available.
METAR KLAF 221954Z VRB03KT 10SM CLR 18/07 A3024 RMK AO2 SLP242 T01830067

More Conditions Fewer Conditions

Pressure 30.25 in
Visibility 10.0 miles
Clouds Clear
Heat Index 77 °F
Dew Point 47 °F
Humidity 44%
Rainfall 0.00 in
Snow Depth Not available.
UV 5 out of 12
Pollen 5.20 out of 12
Air Quality Not available.
Flu Activity Not available.
METAR KLAF 221954Z VRB03KT 10SM CLR 18/07 A3024 RMK AO2 SLP242 T01830067

More Conditions Fewer Conditions

10-Day Weather Forecast

Almanac

Astronomy

Sep. 22, 2014 Rise Set
Actual Time 7:35 AM EDT 7:45 PM EDT
Civil Twilight 7:08 AM EDT 8:12 PM EDT
Nautical Twilight 6:36 AM EDT 8:43 PM EDT
Astronomical Twilight 6:04 AM EDT 9:16 PM EDT
Moon 6:03 AM EDT 6:52 PM EDT
Length of Visible Light 13h 03m
Length of Day
12h 09m
Tomorrow will be 2m 38s shorter.
Waning Crescent, 2% of the Moon is Illuminated
Today
Waning Crescent
Sep 24
New
Oct 1
First Quarter
Oct 8
Full
Oct 15
Last Quarter

Today's Extremes

State Highs State Lows

Community

WunderPhotos

Upload Photos

1,755,523 photos uploaded!

WunderBlogs® & News

Nearby

Snow Depth

Station Depth Elevation
No new snow has been reported.

Earthquake Activity

City Distance Mag. Time & Date
No recent earthquake activity has been reported nearby.
Minimum magnitude displayed is 2.5.

Coastal Water Temperatures

Place Temperature
No Stations Reporting

Nearby Weather Stations